createdAt,value
2019-01-29T00:00:58.547Z,0.00
2019-01-29T00:01:58.596Z,0.00
2019-01-29T00:02:58.645Z,0.00
2019-01-29T00:03:58.698Z,0.00
2019-01-29T00:04:58.745Z,0.00
2019-01-29T00:05:58.795Z,0.00
2019-01-29T00:06:58.845Z,0.00
2019-01-29T00:07:58.894Z,0.00
2019-01-29T00:08:58.946Z,0.00
2019-01-29T00:09:58.996Z,0.00
2019-01-29T00:10:59.042Z,0.00
2019-01-29T00:11:59.093Z,0.00
2019-01-29T00:12:59.142Z,0.00
2019-01-29T00:13:59.194Z,0.00
2019-01-29T00:14:59.245Z,0.00
2019-01-29T00:15:59.291Z,0.00
2019-01-29T00:16:59.341Z,0.00
2019-01-29T00:17:59.391Z,0.00
2019-01-29T00:18:59.439Z,0.00
2019-01-29T00:19:59.490Z,0.00
2019-01-29T00:20:59.538Z,0.00
2019-01-29T00:21:59.588Z,0.00
2019-01-29T00:22:59.637Z,0.00
2019-01-29T00:23:59.690Z,0.00
2019-01-29T00:24:59.738Z,0.00
2019-01-29T00:25:59.788Z,0.00
2019-01-29T00:26:59.854Z,0.00
2019-01-29T00:27:59.887Z,0.00
2019-01-29T00:28:59.938Z,0.00
2019-01-29T00:29:59.985Z,0.00
2019-01-29T00:31:00.092Z,0.00
2019-01-29T00:32:00.085Z,0.00
2019-01-29T00:33:00.135Z,0.00
2019-01-29T00:34:00.184Z,0.00
2019-01-29T00:35:00.233Z,0.00
2019-01-29T00:36:00.282Z,0.00
2019-01-29T00:37:00.331Z,0.00
2019-01-29T00:38:00.383Z,0.00
2019-01-29T00:39:00.431Z,0.00
2019-01-29T00:40:00.480Z,0.00
2019-01-29T00:41:00.531Z,0.00
2019-01-29T00:42:00.582Z,0.00
2019-01-29T00:43:00.628Z,0.00
2019-01-29T00:44:00.679Z,0.00
2019-01-29T00:45:00.729Z,0.00
2019-01-29T00:46:00.778Z,0.00
2019-01-29T00:47:00.828Z,0.00
2019-01-29T00:48:00.877Z,0.00
2019-01-29T00:49:00.925Z,0.00
2019-01-29T00:50:00.975Z,0.00
2019-01-29T00:51:01.025Z,0.00
2019-01-29T00:52:01.074Z,0.00
2019-01-29T00:53:01.124Z,0.00
2019-01-29T00:54:01.174Z,0.00
2019-01-29T00:55:01.221Z,0.00
2019-01-29T00:56:01.271Z,0.00
2019-01-29T00:57:01.320Z,0.00
2019-01-29T00:58:01.378Z,0.00
2019-01-29T00:59:01.419Z,0.00
2019-01-29T01:00:01.469Z,0.00
2019-01-29T01:01:01.520Z,0.00
2019-01-29T01:02:01.569Z,0.00
2019-01-29T01:03:01.618Z,0.00
2019-01-29T01:04:01.666Z,0.00
2019-01-29T01:05:01.716Z,0.00
2019-01-29T01:06:01.767Z,0.00
2019-01-29T01:07:01.819Z,0.00
2019-01-29T01:08:01.867Z,0.00
2019-01-29T01:09:01.916Z,0.00
2019-01-29T01:10:01.967Z,0.00
2019-01-29T01:11:02.013Z,0.00
2019-01-29T01:12:02.062Z,0.00
2019-01-29T01:13:02.114Z,0.00
2019-01-29T01:14:02.164Z,0.00
2019-01-29T01:15:02.209Z,0.00
2019-01-29T01:16:02.260Z,0.00
2019-01-29T01:17:02.309Z,0.00
2019-01-29T01:18:02.359Z,0.00
2019-01-29T01:19:02.408Z,0.00
2019-01-29T01:20:02.456Z,0.00
2019-01-29T01:21:02.507Z,0.00
2019-01-29T01:22:02.555Z,0.00
2019-01-29T01:23:02.605Z,0.00
2019-01-29T01:24:02.654Z,0.00
2019-01-29T01:25:02.705Z,0.00
2019-01-29T01:26:02.752Z,0.00
2019-01-29T01:27:02.840Z,0.00
2019-01-29T01:28:02.850Z,0.00
2019-01-29T01:29:02.901Z,0.00
2019-01-29T01:30:02.958Z,0.00
2019-01-29T01:31:02.996Z,0.00
2019-01-29T01:32:03.047Z,0.00
2019-01-29T01:33:03.097Z,0.00
2019-01-29T01:34:03.146Z,0.00
2019-01-29T01:35:03.195Z,0.00
2019-01-29T01:36:03.244Z,0.00
2019-01-29T01:37:03.292Z,0.00
2019-01-29T01:38:03.343Z,0.00
2019-01-29T01:39:03.389Z,0.00
2019-01-29T01:40:03.438Z,0.00
2019-01-29T01:41:03.489Z,0.00
2019-01-29T01:42:03.536Z,0.00
2019-01-29T01:43:03.586Z,0.00
2019-01-29T01:44:03.634Z,0.00
2019-01-29T01:45:03.684Z,0.00
2019-01-29T01:46:03.736Z,0.00
2019-01-29T01:47:03.781Z,0.00
2019-01-29T01:48:03.830Z,0.00
2019-01-29T01:49:03.880Z,0.00
2019-01-29T01:50:03.929Z,0.00
2019-01-29T01:51:03.976Z,0.00
2019-01-29T01:52:04.026Z,0.00
2019-01-29T01:53:04.075Z,0.00
2019-01-29T01:54:04.124Z,0.00
2019-01-29T01:55:04.172Z,0.00
2019-01-29T01:56:04.220Z,0.00
2019-01-29T01:57:04.271Z,0.00
2019-01-29T01:58:04.318Z,0.00
2019-01-29T01:59:04.371Z,0.00
2019-01-29T02:00:04.420Z,0.00
2019-01-29T02:01:04.464Z,0.00
2019-01-29T02:02:04.514Z,0.00
2019-01-29T02:03:04.562Z,0.00
2019-01-29T02:04:04.612Z,0.00
2019-01-29T02:05:04.660Z,0.00
2019-01-29T02:06:04.710Z,0.00
2019-01-29T02:07:04.757Z,0.00
2019-01-29T02:08:04.807Z,0.00
2019-01-29T02:09:04.859Z,0.00
2019-01-29T02:10:04.904Z,0.00
2019-01-29T02:11:04.952Z,0.00
2019-01-29T02:12:05.002Z,0.00
2019-01-29T02:13:05.050Z,0.00
2019-01-29T02:14:05.100Z,0.00
2019-01-29T02:15:05.148Z,0.00
2019-01-29T02:16:05.197Z,0.00
2019-01-29T02:17:05.247Z,0.00
2019-01-29T02:18:05.297Z,0.00
2019-01-29T02:19:05.349Z,0.00
2019-01-29T02:20:05.395Z,0.00
2019-01-29T02:21:05.442Z,0.00
2019-01-29T02:22:05.490Z,0.00
2019-01-29T02:23:08.074Z,0.00
2019-01-29T02:24:05.587Z,0.00
2019-01-29T02:25:05.637Z,0.00
2019-01-29T02:26:05.686Z,0.00
2019-01-29T02:27:05.733Z,0.00
2019-01-29T02:28:05.783Z,0.00
2019-01-29T02:29:05.831Z,0.00
2019-01-29T02:30:05.881Z,0.00
2019-01-29T02:31:05.935Z,0.00
2019-01-29T02:32:05.977Z,0.00
2019-01-29T02:33:06.027Z,0.00
2019-01-29T02:34:06.075Z,0.00
2019-01-29T02:35:06.123Z,0.00
2019-01-29T02:36:06.175Z,0.00
2019-01-29T02:37:06.221Z,0.00
2019-01-29T02:38:06.273Z,0.00
2019-01-29T02:39:06.318Z,0.00
2019-01-29T02:40:06.369Z,0.00
2019-01-29T02:41:06.415Z,0.00
2019-01-29T02:42:06.464Z,0.00
2019-01-29T02:43:06.515Z,0.00
2019-01-29T02:44:06.562Z,0.00
2019-01-29T02:45:06.612Z,0.00
2019-01-29T02:46:06.659Z,0.00
2019-01-29T02:47:06.706Z,0.00
2019-01-29T02:48:06.757Z,0.00
2019-01-29T02:49:06.806Z,0.00
2019-01-29T02:50:06.854Z,0.00
2019-01-29T02:51:06.901Z,0.00
2019-01-29T02:52:06.950Z,0.00
2019-01-29T02:53:06.999Z,0.00
2019-01-29T02:54:07.051Z,0.00
2019-01-29T02:55:07.095Z,0.00
2019-01-29T02:56:07.150Z,0.00
2019-01-29T02:57:07.193Z,0.00
2019-01-29T02:58:07.246Z,0.00
2019-01-29T02:59:07.315Z,0.00
2019-01-29T03:00:07.339Z,0.00
2019-01-29T03:01:07.389Z,0.00
2019-01-29T03:02:07.437Z,0.00
2019-01-29T03:03:07.491Z,0.00
2019-01-29T03:04:07.896Z,0.00
2019-01-29T03:05:07.584Z,0.00
2019-01-29T03:06:07.633Z,0.00
2019-01-29T03:07:07.681Z,0.00
2019-01-29T03:08:07.731Z,0.00
2019-01-29T03:09:07.779Z,0.00
2019-01-29T03:10:07.828Z,0.00
2019-01-29T03:11:07.876Z,0.00
2019-01-29T03:12:07.924Z,0.00
2019-01-29T03:13:07.972Z,0.00
2019-01-29T03:14:08.022Z,0.00
2019-01-29T03:15:08.070Z,0.00
2019-01-29T03:16:08.118Z,0.00
2019-01-29T03:17:08.168Z,0.00
2019-01-29T03:18:08.218Z,0.00
2019-01-29T03:19:08.264Z,0.00
2019-01-29T03:20:08.314Z,0.00
2019-01-29T03:21:08.374Z,0.00
2019-01-29T03:22:08.411Z,0.00
2019-01-29T03:23:08.460Z,0.00
2019-01-29T03:24:08.508Z,0.00
2019-01-29T03:25:08.559Z,0.00
2019-01-29T03:26:08.608Z,0.00
2019-01-29T03:27:08.654Z,0.00
2019-01-29T03:28:08.706Z,0.00
2019-01-29T03:29:08.752Z,0.00
2019-01-29T03:30:08.803Z,0.00
2019-01-29T03:31:08.852Z,0.00
2019-01-29T03:32:08.900Z,0.00
2019-01-29T03:33:08.949Z,0.00
2019-01-29T03:34:08.997Z,0.00
2019-01-29T03:35:09.045Z,0.00
2019-01-29T03:36:09.095Z,0.00
2019-01-29T03:37:09.145Z,0.00
2019-01-29T03:38:09.202Z,0.00
2019-01-29T03:39:09.239Z,0.00
2019-01-29T03:40:09.287Z,0.00
2019-01-29T03:41:09.337Z,0.00
2019-01-29T03:42:09.388Z,0.00
2019-01-29T03:43:09.434Z,0.00
2019-01-29T03:44:09.483Z,0.00
2019-01-29T03:45:09.532Z,0.00
2019-01-29T03:46:09.591Z,0.00
2019-01-29T03:47:09.628Z,0.00
2019-01-29T03:48:09.677Z,0.00
2019-01-29T03:49:09.727Z,0.00
2019-01-29T03:50:09.780Z,0.00
2019-01-29T03:51:09.823Z,0.00
2019-01-29T03:52:09.872Z,0.00
2019-01-29T03:53:09.923Z,0.00
2019-01-29T03:54:09.971Z,0.00
2019-01-29T03:55:10.016Z,0.00
2019-01-29T03:56:10.066Z,0.00
2019-01-29T03:57:10.114Z,0.00
2019-01-29T03:58:10.164Z,0.00
2019-01-29T03:59:10.210Z,0.00
2019-01-29T04:00:10.260Z,0.00
2019-01-29T04:01:10.308Z,0.00
2019-01-29T04:02:10.358Z,0.00
2019-01-29T04:03:10.404Z,0.00
2019-01-29T04:04:10.454Z,0.00
2019-01-29T04:05:10.503Z,0.00
2019-01-29T04:06:10.551Z,0.00
2019-01-29T04:07:10.605Z,0.00
2019-01-29T04:08:10.658Z,0.00
2019-01-29T04:09:10.697Z,0.00
2019-01-29T04:10:10.747Z,0.00
2019-01-29T04:11:10.794Z,0.00
2019-01-29T04:12:10.842Z,0.00
2019-01-29T04:13:10.894Z,0.00
2019-01-29T04:14:10.945Z,0.00
2019-01-29T04:15:10.989Z,0.00
2019-01-29T04:16:11.038Z,0.00
2019-01-29T04:17:11.092Z,0.00
2019-01-29T04:18:11.135Z,0.00
2019-01-29T04:19:11.184Z,0.00
2019-01-29T04:20:11.234Z,0.00
2019-01-29T04:21:11.280Z,0.00
2019-01-29T04:22:11.330Z,0.00
2019-01-29T04:23:11.379Z,0.00
2019-01-29T04:24:11.428Z,0.00
2019-01-29T04:25:11.476Z,0.00
2019-01-29T04:26:11.524Z,0.00
2019-01-29T04:27:11.575Z,0.00
2019-01-29T04:28:11.622Z,0.00
2019-01-29T04:29:11.670Z,0.00
2019-01-29T04:30:11.720Z,0.00
2019-01-29T04:31:11.768Z,0.00
2019-01-29T04:32:11.815Z,0.00
2019-01-29T04:33:11.866Z,0.00
2019-01-29T04:34:11.914Z,0.00
2019-01-29T04:35:11.964Z,0.00
2019-01-29T04:36:12.012Z,0.00
2019-01-29T04:37:12.062Z,0.00
2019-01-29T04:38:12.114Z,0.00
2019-01-29T04:39:12.159Z,0.00
2019-01-29T04:40:12.207Z,0.00
2019-01-29T04:41:12.257Z,0.00
2019-01-29T04:42:12.304Z,0.00
2019-01-29T04:43:13.221Z,0.00
2019-01-29T04:44:12.403Z,0.00
2019-01-29T04:45:13.282Z,0.00
2019-01-29T04:46:12.501Z,0.00
2019-01-29T04:47:12.549Z,0.00
2019-01-29T04:48:12.599Z,0.00
2019-01-29T04:49:12.969Z,0.00
2019-01-29T04:50:12.701Z,0.00
2019-01-29T04:51:12.746Z,0.00
2019-01-29T04:52:12.794Z,0.00
2019-01-29T04:53:12.844Z,0.00
2019-01-29T04:54:12.894Z,0.00
2019-01-29T04:55:12.940Z,0.00
2019-01-29T04:56:12.990Z,0.00
2019-01-29T04:57:13.040Z,0.00
2019-01-29T04:58:13.089Z,0.00
2019-01-29T04:59:13.137Z,0.00
2019-01-29T05:00:13.211Z,0.00
2019-01-29T05:01:13.249Z,0.00
2019-01-29T05:02:13.285Z,0.00
2019-01-29T05:03:13.333Z,0.00
2019-01-29T05:04:13.383Z,0.00
2019-01-29T05:05:13.432Z,0.00
2019-01-29T05:06:13.482Z,0.00
2019-01-29T05:07:13.530Z,0.00
2019-01-29T05:08:13.581Z,0.00
2019-01-29T05:09:13.629Z,0.00
2019-01-29T05:10:13.678Z,0.00
2019-01-29T05:11:13.726Z,0.00
2019-01-29T05:12:13.792Z,0.00
2019-01-29T05:13:13.827Z,0.00
2019-01-29T05:14:13.898Z,0.00
2019-01-29T05:15:14.278Z,0.00
2019-01-29T05:16:14.298Z,0.00
2019-01-29T05:17:14.406Z,0.00
2019-01-29T05:18:14.087Z,0.00
2019-01-29T05:19:14.129Z,0.00
2019-01-29T05:20:14.169Z,0.00
2019-01-29T05:21:14.255Z,0.00
2019-01-29T05:22:14.351Z,0.00
2019-01-29T05:23:14.359Z,0.00
2019-01-29T05:24:14.381Z,0.00
2019-01-29T05:25:14.552Z,4.00
2019-01-29T05:26:14.497Z,4.00
2019-01-29T05:27:14.548Z,4.00
2019-01-29T05:28:14.561Z,4.00
2019-01-29T05:29:14.744Z,4.00
2019-01-29T05:30:14.663Z,4.00
2019-01-29T05:31:14.725Z,4.00
2019-01-29T05:32:14.769Z,4.00
2019-01-29T05:33:14.840Z,4.00
2019-01-29T05:34:14.897Z,4.00
2019-01-29T05:35:14.938Z,4.00
2019-01-29T05:36:14.974Z,4.00
2019-01-29T05:37:15.003Z,4.00
2019-01-29T05:38:15.057Z,4.00
2019-01-29T05:39:15.101Z,4.00
2019-01-29T05:40:15.173Z,4.00
2019-01-29T05:41:15.201Z,4.00
2019-01-29T05:42:15.256Z,4.00
2019-01-29T05:43:15.327Z,4.00
2019-01-29T05:44:15.347Z,4.00
2019-01-29T05:45:15.398Z,4.00
2019-01-29T05:46:15.459Z,4.00
2019-01-29T05:47:15.495Z,4.00
2019-01-29T05:48:15.545Z,4.00
2019-01-29T05:49:15.596Z,4.00
2019-01-29T05:50:15.645Z,4.00
2019-01-29T05:51:16.025Z,4.00
2019-01-29T05:52:15.743Z,4.00
2019-01-29T05:53:15.810Z,4.00
2019-01-29T05:54:16.687Z,4.00
2019-01-29T05:55:15.889Z,4.00
2019-01-29T05:56:15.938Z,4.00
2019-01-29T05:57:15.987Z,4.00
2019-01-29T05:58:16.039Z,4.00
2019-01-29T05:59:16.087Z,4.00
2019-01-29T06:00:16.137Z,4.00
2019-01-29T06:01:16.186Z,4.00
2019-01-29T06:02:16.235Z,4.00
2019-01-29T06:03:16.283Z,4.00
2019-01-29T06:04:16.334Z,4.00
2019-01-29T06:05:16.384Z,4.00
2019-01-29T06:06:16.432Z,4.00
2019-01-29T06:07:16.483Z,4.00
2019-01-29T06:08:16.551Z,4.00
2019-01-29T06:09:16.583Z,4.00
2019-01-29T06:10:16.683Z,4.00
2019-01-29T06:11:16.688Z,4.00
2019-01-29T06:12:16.728Z,4.00
2019-01-29T06:13:16.780Z,4.00
2019-01-29T06:14:16.872Z,4.00
2019-01-29T06:15:16.876Z,4.00
2019-01-29T06:16:16.937Z,4.00
2019-01-29T06:17:16.974Z,4.00
2019-01-29T06:18:17.023Z,4.00
2019-01-29T06:19:17.072Z,4.00
2019-01-29T06:20:18.509Z,4.00
2019-01-29T06:21:17.172Z,4.00
2019-01-29T06:22:17.220Z,4.00
2019-01-29T06:23:17.271Z,4.00
2019-01-29T06:24:25.590Z,4.00
2019-01-29T06:25:17.369Z,0.00
2019-01-29T06:26:17.418Z,4.00
2019-01-29T06:27:17.475Z,4.00
2019-01-29T06:28:17.516Z,4.00
2019-01-29T06:29:17.928Z,4.00
2019-01-29T06:30:17.648Z,4.00
2019-01-29T06:31:17.663Z,4.00
2019-01-29T06:32:17.714Z,8.00
2019-01-29T06:33:17.762Z,8.00
2019-01-29T06:34:17.811Z,8.00
2019-01-29T06:35:17.859Z,8.00
2019-01-29T06:36:17.909Z,8.00
2019-01-29T06:37:17.959Z,8.00
2019-01-29T06:38:18.048Z,4.00
2019-01-29T06:39:18.059Z,8.00
2019-01-29T06:40:18.107Z,8.00
2019-01-29T06:41:18.467Z,8.00
2019-01-29T06:42:18.207Z,8.00
2019-01-29T06:43:18.253Z,12.00
2019-01-29T06:44:18.301Z,12.00
2019-01-29T06:45:18.351Z,12.00
2019-01-29T06:46:18.402Z,12.00
2019-01-29T06:47:18.450Z,12.00
2019-01-29T06:48:18.500Z,16.00
2019-01-29T06:49:18.550Z,20.00
2019-01-29T06:50:18.599Z,20.00
2019-01-29T06:51:18.646Z,20.00
2019-01-29T06:52:18.697Z,28.00
2019-01-29T06:53:18.744Z,28.00
2019-01-29T06:54:18.796Z,28.00
2019-01-29T06:55:18.853Z,32.00
2019-01-29T06:56:18.919Z,36.00
2019-01-29T06:57:18.943Z,40.00
2019-01-29T06:58:18.993Z,44.00
2019-01-29T06:59:19.039Z,52.00
2019-01-29T07:00:19.091Z,56.00
2019-01-29T07:01:19.140Z,64.00
2019-01-29T07:02:19.189Z,72.00
2019-01-29T07:03:19.236Z,80.00
2019-01-29T07:04:19.287Z,96.00
2019-01-29T07:05:19.335Z,116.00
2019-01-29T07:06:19.388Z,136.00
2019-01-29T07:07:19.434Z,156.00
2019-01-29T07:08:19.483Z,176.00
2019-01-29T07:09:19.533Z,192.00
2019-01-29T07:10:19.581Z,216.00
2019-01-29T07:11:19.630Z,240.00
2019-01-29T07:12:19.681Z,264.00
2019-01-29T07:13:19.730Z,276.00
2019-01-29T07:14:19.778Z,296.00
2019-01-29T07:15:19.828Z,320.00
2019-01-29T07:16:19.880Z,352.00
2019-01-29T07:17:19.926Z,384.00
2019-01-29T07:18:19.976Z,412.00
2019-01-29T07:19:20.024Z,444.00
2019-01-29T07:20:20.077Z,472.00
2019-01-29T07:21:20.121Z,500.00
2019-01-29T07:22:20.171Z,520.00
2019-01-29T07:23:20.220Z,544.00
2019-01-29T07:24:20.268Z,568.00
2019-01-29T07:25:20.318Z,584.00
2019-01-29T07:26:20.369Z,604.00
2019-01-29T07:27:20.416Z,632.00
2019-01-29T07:28:20.467Z,680.00
2019-01-29T07:29:20.514Z,724.00
2019-01-29T07:30:20.565Z,772.00
2019-01-29T07:31:20.611Z,820.00
2019-01-29T07:32:20.661Z,860.00
2019-01-29T07:33:20.722Z,880.00
2019-01-29T07:34:20.762Z,892.00
2019-01-29T07:35:20.808Z,924.00
2019-01-29T07:36:21.538Z,956.00
2019-01-29T07:37:22.133Z,984.00
2019-01-29T07:38:20.956Z,1036.00
2019-01-29T07:39:21.007Z,1092.00
2019-01-29T07:40:21.054Z,1148.00
2019-01-29T07:41:21.102Z,1252.00
2019-01-29T07:42:21.151Z,1400.00
2019-01-29T07:43:21.203Z,1460.00
2019-01-29T07:44:21.249Z,1440.00
2019-01-29T07:45:21.301Z,1504.00
2019-01-29T07:46:21.347Z,1556.00
2019-01-29T07:47:21.400Z,1652.00
2019-01-29T07:48:21.446Z,1704.00
2019-01-29T07:49:21.495Z,1808.00
2019-01-29T07:50:21.543Z,1872.00
2019-01-29T07:51:21.592Z,1880.00
2019-01-29T07:52:21.642Z,1768.00
2019-01-29T07:53:21.771Z,1692.00
2019-01-29T07:54:21.740Z,1764.00
2019-01-29T07:55:21.789Z,1884.00
2019-01-29T07:56:21.837Z,1968.00
2019-01-29T07:57:21.888Z,1984.00
2019-01-29T07:58:21.935Z,2028.00
2019-01-29T07:59:32.426Z,2132.00
2019-01-29T08:00:22.034Z,2252.00
2019-01-29T08:01:22.084Z,2372.00
2019-01-29T08:02:22.133Z,2432.00
2019-01-29T08:03:22.181Z,2436.00
2019-01-29T08:04:22.229Z,2476.00
2019-01-29T08:05:22.280Z,2520.00
2019-01-29T08:06:22.330Z,2644.00
2019-01-29T08:07:22.380Z,2856.00
2019-01-29T08:08:22.430Z,2968.00
2019-01-29T08:09:22.476Z,3068.00
2019-01-29T08:10:22.527Z,3176.00
2019-01-29T08:11:22.574Z,3300.00
2019-01-29T08:12:22.624Z,3404.00
2019-01-29T08:13:22.674Z,3444.00
2019-01-29T08:14:22.724Z,3412.00
2019-01-29T08:15:22.771Z,3260.00
2019-01-29T08:16:23.353Z,3160.00
2019-01-29T08:17:22.908Z,3108.00
2019-01-29T08:18:22.921Z,3224.00
2019-01-29T08:19:22.979Z,3236.00
2019-01-29T08:20:23.020Z,3152.00
2019-01-29T08:21:23.069Z,3136.00
2019-01-29T08:22:23.119Z,3212.00
2019-01-29T08:23:23.168Z,3440.00
2019-01-29T08:24:23.219Z,3712.00
2019-01-29T08:25:23.266Z,3756.00
2019-01-29T08:26:23.319Z,3652.00
2019-01-29T08:27:23.366Z,3504.00
2019-01-29T08:28:23.417Z,3468.00
2019-01-29T08:29:23.466Z,3444.00
2019-01-29T08:30:23.518Z,3256.00
2019-01-29T08:31:23.564Z,3120.00
2019-01-29T08:32:24.217Z,3096.00
2019-01-29T08:33:23.680Z,3028.00
2019-01-29T08:34:23.715Z,3132.00
2019-01-29T08:35:23.765Z,3280.00
2019-01-29T08:36:23.815Z,3352.00
2019-01-29T08:37:23.865Z,3452.00
2019-01-29T08:38:23.915Z,3604.00
2019-01-29T08:39:23.964Z,3728.00
2019-01-29T08:40:24.017Z,3852.00
2019-01-29T08:41:24.064Z,4000.00
2019-01-29T08:42:24.114Z,4256.00
2019-01-29T08:43:24.164Z,4456.00
2019-01-29T08:44:24.214Z,4436.00
2019-01-29T08:45:24.277Z,4416.00
2019-01-29T08:46:24.315Z,4440.00
2019-01-29T08:47:24.365Z,4544.00
2019-01-29T08:48:24.413Z,4660.00
2019-01-29T08:49:24.464Z,4824.00
2019-01-29T08:50:24.514Z,5028.00
2019-01-29T08:51:24.565Z,5136.00
2019-01-29T08:52:24.616Z,5268.00
2019-01-29T08:53:24.727Z,5152.00
2019-01-29T08:54:24.718Z,5076.00
2019-01-29T08:55:25.119Z,4952.00
2019-01-29T08:56:24.817Z,4900.00
2019-01-29T08:57:24.867Z,4852.00
2019-01-29T08:58:27.120Z,4836.00
2019-01-29T08:59:24.966Z,4900.00
2019-01-29T09:00:25.017Z,4928.00
2019-01-29T09:01:25.072Z,4940.00
2019-01-29T09:02:25.119Z,4824.00
2019-01-29T09:03:25.168Z,4884.00
2019-01-29T09:04:25.219Z,4932.00
2019-01-29T09:05:25.270Z,4952.00
2019-01-29T09:06:25.321Z,5064.00
2019-01-29T09:07:25.372Z,5100.00
2019-01-29T09:08:25.421Z,5224.00
2019-01-29T09:09:25.472Z,5380.00
2019-01-29T09:10:25.525Z,5452.00
2019-01-29T09:11:25.574Z,5508.00
2019-01-29T09:12:25.624Z,5396.00
2019-01-29T09:13:25.739Z,5192.00
2019-01-29T09:14:25.727Z,5300.00
2019-01-29T09:15:25.777Z,5596.00
2019-01-29T09:16:25.831Z,5644.00
2019-01-29T09:17:25.878Z,5768.00
2019-01-29T09:18:25.929Z,5880.00
2019-01-29T09:19:25.979Z,5804.00
2019-01-29T09:20:26.031Z,5792.00
2019-01-29T09:21:26.082Z,5876.00
2019-01-29T09:22:26.146Z,5740.00
2019-01-29T09:23:26.183Z,5472.00
2019-01-29T09:24:26.235Z,5248.00
2019-01-29T09:25:26.286Z,5016.00
2019-01-29T09:26:26.336Z,5196.00
2019-01-29T09:27:26.387Z,5456.00
2019-01-29T09:28:26.438Z,5632.00
2019-01-29T09:29:26.490Z,5648.00
2019-01-29T09:30:26.541Z,5168.00
2019-01-29T09:31:26.597Z,4656.00
2019-01-29T09:32:26.644Z,4328.00
2019-01-29T09:33:26.700Z,4672.00
2019-01-29T09:34:26.746Z,5276.00
2019-01-29T09:35:26.796Z,5592.00
2019-01-29T09:36:26.846Z,5844.00
2019-01-29T09:37:26.902Z,5872.00
2019-01-29T09:38:26.950Z,6208.00
2019-01-29T09:39:27.004Z,6468.00
2019-01-29T09:40:27.053Z,6636.00
2019-01-29T09:41:27.104Z,6568.00
2019-01-29T09:42:27.155Z,6428.00
2019-01-29T09:43:27.206Z,7124.00
2019-01-29T09:44:27.256Z,7468.00
2019-01-29T09:45:27.308Z,7400.00
2019-01-29T09:46:27.360Z,7796.00
2019-01-29T09:47:27.411Z,7668.00
2019-01-29T09:48:27.463Z,7508.00
2019-01-29T09:49:27.520Z,7312.00
2019-01-29T09:50:27.569Z,7032.00
2019-01-29T09:51:27.616Z,6772.00
2019-01-29T09:52:27.669Z,6376.00
2019-01-29T09:53:27.720Z,6240.00
2019-01-29T09:54:27.773Z,5792.00
2019-01-29T09:55:29.246Z,5780.00
2019-01-29T09:56:27.879Z,5896.00
2019-01-29T09:57:27.928Z,6412.00
2019-01-29T09:58:27.979Z,7212.00
2019-01-29T09:59:28.031Z,7436.00
2019-01-29T10:00:28.086Z,7884.00
2019-01-29T10:01:28.134Z,7976.00
2019-01-29T10:02:28.188Z,7588.00
2019-01-29T10:03:28.238Z,8248.00
2019-01-29T10:04:28.291Z,9760.00
2019-01-29T10:05:28.342Z,10412.00
2019-01-29T10:06:28.394Z,10360.00
2019-01-29T10:07:29.225Z,10220.00
2019-01-29T10:08:28.499Z,9872.00
2019-01-29T10:09:28.616Z,9656.00
2019-01-29T10:10:28.610Z,9140.00
2019-01-29T10:11:28.682Z,9820.00
2019-01-29T10:12:28.707Z,10892.00
2019-01-29T10:13:28.759Z,10572.00
2019-01-29T10:14:28.811Z,9728.00
2019-01-29T10:15:28.862Z,8784.00
2019-01-29T10:16:28.915Z,8332.00
2019-01-29T10:17:28.967Z,9464.00
2019-01-29T10:18:29.072Z,10284.00
2019-01-29T10:19:29.071Z,10452.00
2019-01-29T10:20:29.124Z,10144.00
2019-01-29T10:21:29.177Z,9284.00
2019-01-29T10:22:29.230Z,8504.00
2019-01-29T10:23:29.283Z,7812.00
2019-01-29T10:24:29.335Z,8388.00
2019-01-29T10:25:37.102Z,8680.00
2019-01-29T10:26:29.441Z,9784.00
2019-01-29T10:27:29.493Z,9708.00
2019-01-29T10:28:29.545Z,10540.00
2019-01-29T10:29:29.600Z,11220.00
2019-01-29T10:30:29.653Z,11888.00
2019-01-29T10:31:29.809Z,10204.00
2019-01-29T10:32:29.756Z,8380.00
2019-01-29T10:33:29.810Z,7652.00
2019-01-29T10:34:29.863Z,7396.00
2019-01-29T10:35:30.328Z,7348.00
2019-01-29T10:36:29.967Z,8244.00
2019-01-29T10:37:30.023Z,7820.00
2019-01-29T10:38:30.073Z,6808.00
2019-01-29T10:39:30.125Z,6308.00
2019-01-29T10:40:30.178Z,6048.00
2019-01-29T10:41:30.230Z,6064.00
2019-01-29T10:42:30.286Z,6092.00
2019-01-29T10:43:30.335Z,6436.00
2019-01-29T10:44:30.389Z,7100.00
2019-01-29T10:45:30.444Z,6964.00
2019-01-29T10:46:30.496Z,7124.00
2019-01-29T10:47:30.545Z,7868.00
2019-01-29T10:48:30.599Z,8744.00
2019-01-29T10:49:30.652Z,9272.00
2019-01-29T10:50:30.703Z,8016.00
2019-01-29T10:51:30.756Z,7500.00
2019-01-29T10:52:30.814Z,7616.00
2019-01-29T10:53:30.861Z,8372.00
2019-01-29T10:54:30.934Z,9020.00
2019-01-29T10:55:30.964Z,8964.00
2019-01-29T10:56:31.020Z,7640.00
2019-01-29T10:57:31.069Z,6584.00
2019-01-29T10:58:31.122Z,5804.00
2019-01-29T10:59:31.174Z,5728.00
2019-01-29T11:00:31.227Z,5972.00
2019-01-29T11:01:31.279Z,6040.00
2019-01-29T11:02:31.331Z,6224.00
2019-01-29T11:03:31.383Z,6252.00
2019-01-29T11:04:31.435Z,6344.00
2019-01-29T11:05:31.602Z,6616.00
2019-01-29T11:06:31.546Z,6960.00
2019-01-29T11:07:31.591Z,7252.00
2019-01-29T11:08:31.644Z,7084.00
2019-01-29T11:09:31.696Z,6736.00
2019-01-29T11:10:32.353Z,7504.00
2019-01-29T11:11:31.800Z,7308.00
2019-01-29T11:12:31.852Z,6804.00
2019-01-29T11:13:31.904Z,7652.00
2019-01-29T11:14:31.956Z,8460.00
2019-01-29T11:15:32.239Z,9056.00
2019-01-29T11:16:32.060Z,9912.00
2019-01-29T11:17:32.112Z,9880.00
2019-01-29T11:18:32.167Z,10272.00
2019-01-29T11:19:32.214Z,11004.00
2019-01-29T11:20:32.269Z,11572.00
2019-01-29T11:21:32.319Z,11992.00
2019-01-29T11:22:32.372Z,11600.00
2019-01-29T11:23:32.424Z,12560.00
2019-01-29T11:24:32.476Z,12192.00
2019-01-29T11:25:32.528Z,11784.00
2019-01-29T11:26:32.580Z,11268.00
2019-01-29T11:27:32.634Z,10440.00
2019-01-29T11:28:32.684Z,9552.00
2019-01-29T11:29:32.737Z,9064.00
2019-01-29T11:30:32.797Z,8948.00
2019-01-29T11:31:32.844Z,11092.00
2019-01-29T11:32:32.909Z,13044.00
2019-01-29T11:33:32.948Z,13008.00
2019-01-29T11:34:33.001Z,11488.00
2019-01-29T11:35:33.051Z,11156.00
2019-01-29T11:36:33.106Z,12492.00
2019-01-29T11:37:33.158Z,14404.00
2019-01-29T11:38:33.216Z,12752.00
2019-01-29T11:39:33.266Z,10532.00
2019-01-29T11:40:33.316Z,8996.00
2019-01-29T11:41:33.368Z,8944.00
2019-01-29T11:42:33.421Z,9080.00
2019-01-29T11:43:33.475Z,9288.00
2019-01-29T11:44:33.526Z,9444.00
2019-01-29T11:45:33.579Z,9296.00
2019-01-29T11:46:33.633Z,9712.00
2019-01-29T11:47:33.685Z,10008.00
2019-01-29T11:48:33.738Z,9756.00
2019-01-29T11:49:33.790Z,12452.00
2019-01-29T11:50:33.844Z,7048.00
2019-01-29T11:51:33.896Z,6028.00
2019-01-29T11:52:33.949Z,5232.00
2019-01-29T11:53:34.001Z,4664.00
2019-01-29T11:54:34.055Z,4288.00
2019-01-29T11:55:34.114Z,3972.00
2019-01-29T11:56:34.159Z,3684.00
2019-01-29T11:57:34.213Z,3668.00
2019-01-29T11:58:34.266Z,4136.00
2019-01-29T11:59:34.316Z,5636.00
2019-01-29T12:00:34.370Z,8720.00
2019-01-29T12:01:34.423Z,11860.00
2019-01-29T12:02:34.475Z,12016.00
2019-01-29T12:03:34.526Z,10148.00
2019-01-29T12:04:34.579Z,8216.00
2019-01-29T12:05:35.206Z,7720.00
2019-01-29T12:06:35.207Z,8400.00
2019-01-29T12:07:34.750Z,11860.00
2019-01-29T12:08:34.788Z,16408.00
2019-01-29T12:09:34.840Z,9900.00
2019-01-29T12:10:34.892Z,8192.00
2019-01-29T12:11:34.945Z,8064.00
2019-01-29T12:12:34.998Z,9148.00
2019-01-29T12:13:35.050Z,9344.00
2019-01-29T12:14:35.105Z,8016.00
2019-01-29T12:15:35.904Z,8188.00
2019-01-29T12:16:35.207Z,9788.00
2019-01-29T12:17:35.260Z,11168.00
2019-01-29T12:18:35.312Z,10520.00
2019-01-29T12:19:35.364Z,8644.00
2019-01-29T12:20:35.416Z,7892.00
2019-01-29T12:21:35.469Z,7920.00
2019-01-29T12:22:35.919Z,7676.00
2019-01-29T12:23:35.572Z,7828.00
2019-01-29T12:24:35.625Z,8152.00
2019-01-29T12:25:35.678Z,8116.00
2019-01-29T12:26:35.730Z,7632.00
2019-01-29T12:27:36.162Z,8948.00
2019-01-29T12:28:35.833Z,9580.00
2019-01-29T12:29:35.886Z,13448.00
2019-01-29T12:30:35.938Z,9376.00
2019-01-29T12:31:35.990Z,8288.00
2019-01-29T12:32:36.041Z,7716.00
2019-01-29T12:33:36.093Z,7648.00
2019-01-29T12:34:36.147Z,9120.00
2019-01-29T12:35:36.198Z,11040.00
2019-01-29T12:36:36.558Z,11944.00
2019-01-29T12:37:36.302Z,11072.00
2019-01-29T12:38:36.354Z,11220.00
2019-01-29T12:39:36.406Z,11432.00
2019-01-29T12:40:37.120Z,16212.00
2019-01-29T12:41:36.511Z,18048.00
2019-01-29T12:42:36.564Z,11332.00
2019-01-29T12:43:36.614Z,8728.00
2019-01-29T12:44:36.668Z,7856.00